Time;durP1;ratioP1;P1;durP2;ratioP2;P2;SDS_P1;SDS_P2;PMS_P1;PMS_P2;Temp;Humidity;BMP_temperature;BMP_pressure;BME280_temperature;BME280_humidity;BME280_pressure;Samples;Min_cycle;Max_cycle;Signal;HPM_P1;HPM_P2
2022/10/04 00:10:27;;;;;;;10.53;3.87;;;;;;;16.40;nan;99716.97;31836230;27;20126;-71
2022/10/04 00:25:35;;;;;;;9.90;3.13;;;;;;;16.32;nan;99716.56;31845177;27;20047;-71
2022/10/04 00:40:46;;;;;;;10.30;3.20;;;;;;;16.01;nan;99711.44;31845497;27;20043;-71
2022/10/04 00:55:52;;;;;;;6.77;2.77;;;;;;;16.05;nan;99713.25;31842498;27;20055;-71
2022/10/04 01:11:12;;;;;;;5.80;2.60;;;;;;;16.20;nan;99720.31;31842635;27;20055;-70
2022/10/04 01:26:28;;;;;;;3.37;1.83;;;;;;;16.17;nan;99723.22;31846536;27;20055;-71
2022/10/04 01:41:43;;;;;;;5.70;2.37;;;;;;;15.79;nan;99734.81;31865331;27;20116;-70
2022/10/04 01:56:55;;;;;;;12.37;3.27;;;;;;;15.58;nan;99736.56;31863539;27;20543;-70
2022/10/04 02:11:58;;;;;;;19.17;5.00;;;;;;;15.55;nan;99748.41;31851177;27;20055;-71
2022/10/04 02:27:00;;;;;;;16.77;3.83;;;;;;;15.55;nan;99749.16;31862214;27;20062;-71
2022/10/04 02:42:11;;;;;;;7.67;2.80;;;;;;;15.54;nan;99753.13;31854392;27;20059;-71
2022/10/04 02:57:21;;;;;;;6.63;2.90;;;;;;;15.44;nan;99765.28;31849920;27;20486;-71
2022/10/04 03:12:24;;;;;;;4.00;2.23;;;;;;;15.40;nan;99769.38;31862019;27;20527;-70
2022/10/04 03:27:30;;;;;;;5.33;2.70;;;;;;;14.48;nan;99783.06;31862945;27;20051;-70
2022/10/04 03:42:35;;;;;;;5.20;2.63;;;;;;;14.10;nan;99809.91;31858817;27;20089;-71
2022/10/04 03:57:37;;;;;;;6.43;3.30;;;;;;;14.29;nan;99825.91;31857446;27;20061;-71
2022/10/04 04:12:46;;;;;;;5.70;3.00;;;;;;;14.27;nan;99830.31;31840147;27;20126;-71
2022/10/04 04:28:01;;;;;;;6.50;3.27;;;;;;;14.68;nan;99850.94;31845317;27;20515;-71
2022/10/04 04:43:03;;;;;;;9.60;3.93;;;;;;;14.99;nan;99872.69;31842564;27;20051;-72
2022/10/04 04:58:13;;;;;;;7.67;3.53;;;;;;;15.92;nan;99869.50;31843052;27;20062;-70
2022/10/04 05:13:16;;;;;;;7.43;3.43;;;;;;;16.60;nan;99865.13;31865027;27;20047;-71
2022/10/04 05:28:18;;;;;;;9.53;5.43;;;;;;;17.92;nan;99894.94;31868373;27;20043;-72
2022/10/04 05:43:36;;;;;;;10.43;6.93;;;;;;;19.27;nan;99895.66;31862307;27;20085;-70
2022/10/04 05:58:54;;;;;;;8.43;4.00;;;;;;;21.03;nan;99889.84;31866083;27;20048;-73
2022/10/04 06:14:02;;;;;;;7.00;4.77;;;;;;;22.30;nan;99907.97;31869969;27;20051;-71
2022/10/04 06:29:10;;;;;;;6.38;3.72;;;;;;;23.24;nan;99922.88;31861993;27;20051;-73
2022/10/04 06:44:36;;;;;;;6.70;2.88;;;;;;;23.75;nan;99929.69;31853302;27;20535;-73
2022/10/04 06:59:51;;;;;;;4.15;2.33;;;;;;;24.18;nan;99943.00;31846037;27;20047;-72
2022/10/04 07:14:59;;;;;;;5.07;2.88;;;;;;;24.69;nan;99930.22;31842303;27;20066;-78
2022/10/04 07:30:07;;;;;;;4.78;2.58;;;;;;;25.23;nan;99951.63;31839480;27;20047;-76
2022/10/04 07:45:16;;;;;;;25.65;13.13;;;;;;;25.96;nan;99945.09;31849356;27;20055;-75
2022/10/04 08:00:21;;;;;;;3.25;2.30;;;;;;;26.71;nan;99956.75;31852222;27;20408;-76
2022/10/04 08:15:34;;;;;;;2.80;2.00;;;;;;;25.82;nan;99970.06;31846856;27;20663;-77
2022/10/04 08:30:59;;;;;;;2.93;1.90;;;;;;;26.12;nan;99974.69;31851099;27;20116;-74
2022/10/04 08:46:02;;;;;;;3.80;2.05;;;;;;;26.61;nan;99964.03;31844071;27;20073;-75
2022/10/04 09:01:51;;;;;;;4.63;2.10;;;;;;;26.53;nan;100002.13;31851519;27;20062;-74
2022/10/04 09:17:21;;;;;;;3.55;1.70;;;;;;;26.33;nan;100009.03;31829683;27;20397;-75
2022/10/04 09:33:00;;;;;;;3.40;1.77;;;;;;;27.17;nan;100018.72;31811180;27;20099;-75
2022/10/04 09:48:24;;;;;;;2.92;1.17;;;;;;;27.16;nan;100029.13;31844058;27;20062;-75
2022/10/04 10:03:37;;;;;;;2.03;0.88;;;;;;;26.76;nan;100047.78;31857777;27;20141;-76
2022/10/04 10:19:33;;;;;;;0.77;0.60;;;;;;;27.29;nan;100059.03;31861177;27;20530;-75
2022/10/04 10:34:43;;;;;;;2.58;1.10;;;;;;;26.81;nan;100046.94;31862069;27;20078;-75
2022/10/04 10:50:00;;;;;;;1.90;1.10;;;;;;;26.37;nan;100072.72;31859708;27;20070;-74
2022/10/04 11:05:27;;;;;;;1.17;0.90;;;;;;;27.10;nan;100080.69;31856023;27;20054;-75
2022/10/04 11:20:50;;;;;;;4.10;1.55;;;;;;;25.14;nan;100096.38;31851345;27;20079;-75
2022/10/04 11:36:40;;;;;;;1.50;1.03;;;;;;;24.42;nan;100112.31;31831705;27;20066;-75
2022/10/04 11:52:11;;;;;;;1.92;1.73;;;;;;;23.57;nan;100118.69;31783500;27;20081;-75
2022/10/04 12:07:26;;;;;;;1.42;0.98;;;;;;;22.69;nan;100131.25;31833838;27;20039;-76
2022/10/04 12:22:54;;;;;;;2.17;1.65;;;;;;;22.02;nan;100153.97;31846362;27;20070;-76
2022/10/04 12:38:18;;;;;;;1.15;0.90;;;;;;;21.94;nan;100171.50;31843180;27;20481;-76
2022/10/04 12:53:37;;;;;;;1.10;0.80;;;;;;;21.58;nan;100175.78;31839167;27;20077;-75
2022/10/04 13:08:56;;;;;;;1.30;1.10;;;;;;;21.32;nan;100186.91;31846247;28;20054;-76
2022/10/04 13:24:53;;;;;;;3.20;1.30;;;;;;;20.98;nan;100192.13;31853989;27;20059;-75
2022/10/04 13:39:58;;;;;;;2.40;1.48;;;;;;;20.93;nan;100195.56;31868238;27;20128;-75
2022/10/04 14:11:20;;;;;;;4.03;1.40;;;;;;;19.84;nan;100228.28;31859743;27;20055;-73
2022/10/04 14:26:54;;;;;;;3.33;2.53;;;;;;;19.59;nan;100242.72;31848178;27;20079;-78
2022/10/04 14:42:22;;;;;;;3.37;2.30;;;;;;;19.12;nan;100255.41;31842943;27;20051;-74
2022/10/04 14:57:43;;;;;;;2.05;1.70;;;;;;;18.85;nan;100286.66;31899409;27;20371;-81
2022/10/04 15:12:58;;;;;;;4.00;2.30;;;;;;;18.98;nan;100311.16;31845837;27;20051;-73
2022/10/04 15:29:06;;;;;;;5.63;3.43;;;;;;;18.16;nan;100350.88;31869891;27;20043;-80
2022/10/04 15:44:10;;;;;;;7.63;3.00;;;;;;;18.32;nan;100374.47;31878968;27;20055;-86
2022/10/04 15:59:52;;;;;;;4.17;3.00;;;;;;;18.13;nan;100384.00;31838489;27;20058;-83
2022/10/04 16:15:19;;;;;;;9.60;5.53;;;;;;;18.04;nan;100407.53;31828509;27;21908;-73
2022/10/04 16:30:22;;;;;;;6.93;4.10;;;;;;;17.86;nan;100421.31;31845494;27;20055;-77
2022/10/04 16:45:38;;;;;;;7.33;4.80;;;;;;;17.59;nan;100448.75;31848738;27;20055;-72
2022/10/04 17:00:40;;;;;;;4.73;3.47;;;;;;;17.56;nan;100457.91;31856227;27;20088;-75
2022/10/04 17:16:08;;;;;;;4.43;3.40;;;;;;;17.38;nan;100462.16;31865153;27;20058;-73
2022/10/04 17:31:26;;;;;;;7.83;3.70;;;;;;;17.33;nan;100462.78;31869455;27;20549;-73
2022/10/04 17:46:57;;;;;;;9.33;6.03;;;;;;;17.35;nan;100478.78;31870166;27;20059;-71
2022/10/04 18:02:09;;;;;;;6.97;4.93;;;;;;;17.31;nan;100483.66;31876675;27;20070;-73
2022/10/04 18:17:46;;;;;;;3.00;2.50;;;;;;;17.12;nan;100493.06;31871108;27;20079;-73
2022/10/04 18:32:56;;;;;;;5.37;2.73;;;;;;;17.08;nan;100509.66;31822354;27;20056;-72
2022/10/04 18:48:01;;;;;;;3.10;2.67;;;;;;;16.83;nan;100510.63;31849115;27;20051;-73
2022/10/04 19:03:29;;;;;;;4.20;2.67;;;;;;;16.57;nan;100521.00;31856476;27;20047;-72
2022/10/04 19:18:49;;;;;;;4.17;3.10;;;;;;;16.49;nan;100519.75;31861961;27;20422;-72
2022/10/04 19:34:02;;;;;;;4.30;2.60;;;;;;;16.24;nan;100530.84;31854955;27;20062;-73
2022/10/04 19:49:17;;;;;;;3.90;2.67;;;;;;;16.14;nan;100537.47;31842483;27;20066;-73
2022/10/04 20:04:34;;;;;;;4.67;2.97;;;;;;;15.73;nan;100539.28;31841081;27;20488;-76
2022/10/04 20:19:39;;;;;;;4.47;2.50;;;;;;;15.81;nan;100554.25;31821599;27;20043;-72
2022/10/04 20:34:41;;;;;;;8.70;5.37;;;;;;;15.48;nan;100563.94;31831500;27;20054;-70
2022/10/04 20:49:44;;;;;;;7.43;5.03;;;;;;;15.41;nan;100569.63;31825523;27;20063;-71
2022/10/04 21:04:49;;;;;;;3.57;2.83;;;;;;;15.23;nan;100576.44;31836035;27;20055;-70
2022/10/04 21:19:51;;;;;;;3.10;2.20;;;;;;;15.16;nan;100587.59;31828787;27;20074;-70
2022/10/04 21:34:53;;;;;;;4.53;2.77;;;;;;;14.89;nan;100584.50;31830732;27;20380;-71
2022/10/04 21:49:55;;;;;;;10.27;2.60;;;;;;;14.67;nan;100596.06;31860024;27;20441;-71
2022/10/04 22:04:57;;;;;;;10.37;3.13;;;;;;;14.63;nan;100603.63;31866885;27;20412;-70
2022/10/04 22:19:59;;;;;;;4.13;3.10;;;;;;;14.30;nan;100615.81;31855393;27;20047;-71
2022/10/04 22:35:14;;;;;;;5.97;2.70;;;;;;;14.28;nan;100618.22;31865308;27;20059;-70
2022/10/04 22:50:27;;;;;;;4.33;2.97;;;;;;;13.93;nan;100614.44;31872202;27;20668;-70
2022/10/04 23:05:29;;;;;;;5.30;2.97;;;;;;;13.95;nan;100625.69;31860627;27;20074;-71
2022/10/04 23:20:31;;;;;;;9.37;5.00;;;;;;;13.88;nan;100632.09;31851823;27;20047;-70
2022/10/04 23:35:33;;;;;;;6.30;3.87;;;;;;;13.88;nan;100628.59;31843373;27;20408;-69
2022/10/04 23:50:37;;;;;;;8.00;4.47;;;;;;;13.62;nan;100616.75;31850295;27;20104;-70
